createdAt,value
2022-09-05T00:00:38.211Z,13.79
2022-09-05T00:04:14.971Z,13.71
2022-09-05T00:07:58.463Z,13.83
2022-09-05T00:11:41.126Z,13.73
2022-09-05T00:15:16.997Z,13.78
2022-09-05T00:24:21.446Z,13.73
2022-09-05T00:24:29.815Z,13.63
2022-09-05T00:26:33.788Z,13.55
2022-09-05T00:31:07.720Z,13.50
2022-09-05T00:33:43.176Z,13.58
2022-09-05T00:36:55.009Z,13.48
2022-09-05T00:40:29.579Z,13.45
2022-09-05T00:43:43.108Z,13.38
2022-09-05T00:47:10.877Z,13.38
2022-09-05T00:50:30.792Z,13.33
2022-09-05T00:53:52.382Z,13.33
2022-09-05T00:57:22.520Z,13.41
2022-09-05T01:00:50.351Z,13.37
2022-09-05T01:04:20.899Z,13.26
2022-09-05T01:07:59.565Z,13.20
2022-09-05T01:11:20.877Z,13.17
2022-09-05T01:15:00.714Z,13.15
2022-09-05T01:18:32.781Z,13.20
2022-09-05T01:22:20.382Z,13.10
2022-09-05T01:25:55.039Z,13.11
2022-09-05T01:29:16.218Z,12.99
2022-09-05T01:32:41.410Z,12.98
2022-09-05T01:36:15.001Z,12.91
2022-09-05T01:40:11.130Z,12.84
2022-09-05T01:43:27.887Z,12.82
2022-09-05T01:46:50.914Z,12.88
2022-09-05T01:50:18.213Z,12.90
2022-09-05T01:53:43.580Z,12.84
2022-09-05T01:57:08.952Z,12.70
2022-09-05T02:00:23.033Z,12.71
2022-09-05T02:03:42.186Z,12.71
2022-09-05T02:07:22.500Z,12.68
2022-09-05T02:10:54.661Z,12.61
2022-09-05T02:14:24.340Z,12.59
2022-09-05T02:17:53.121Z,12.53
2022-09-05T02:21:10.462Z,12.51
2022-09-05T02:24:26.054Z,12.48
2022-09-05T02:28:04.702Z,12.45
2022-09-05T02:31:25.385Z,12.43
2022-09-05T02:34:49.525Z,12.48
2022-09-05T02:39:07.522Z,12.39
2022-09-05T02:45:14.815Z,12.30
2022-09-05T02:45:34.755Z,12.33
2022-09-05T02:49:01.957Z,12.22
2022-09-05T02:57:33.869Z,12.17
2022-09-05T02:57:40.795Z,12.15
2022-09-05T03:00:03.934Z,12.19
2022-09-05T03:03:27.404Z,12.15
2022-09-05T03:06:49.978Z,12.12
2022-09-05T03:10:16.513Z,11.97
2022-09-05T03:14:22.638Z,12.06
2022-09-05T03:18:21.613Z,12.14
2022-09-05T03:22:13.303Z,12.03
2022-09-05T03:26:22.213Z,12.05
2022-09-05T03:30:08.428Z,11.87
2022-09-05T03:33:54.500Z,11.84
2022-09-05T03:37:50.170Z,11.80
2022-09-05T03:41:20.825Z,11.80
2022-09-05T03:45:01.768Z,11.79
2022-09-05T03:48:44.956Z,11.79
2022-09-05T03:57:11.479Z,11.81
2022-09-05T03:57:22.451Z,11.87
2022-09-05T04:00:11.377Z,11.82
2022-09-05T04:08:17.305Z,11.82
2022-09-05T04:08:18.449Z,11.82
2022-09-05T04:10:46.062Z,11.80
2022-09-05T04:14:03.916Z,11.79
2022-09-05T04:17:28.741Z,11.88
2022-09-05T04:20:45.421Z,11.79
2022-09-05T04:24:11.676Z,11.72
2022-09-05T04:27:38.449Z,11.70
2022-09-05T04:30:56.297Z,11.69
2022-09-05T04:34:29.225Z,11.71
2022-09-05T04:37:49.999Z,11.74
2022-09-05T04:41:04.844Z,11.69
2022-09-05T04:44:18.201Z,11.68
2022-09-05T04:47:36.678Z,11.67
2022-09-05T04:51:13.068Z,11.73
2022-09-05T04:54:36.190Z,11.80
2022-09-05T04:57:52.360Z,11.84
2022-09-05T05:06:00.846Z,11.99
2022-09-05T05:06:10.495Z,12.02
2022-09-05T05:08:31.703Z,12.19
2022-09-05T05:17:59.475Z,12.02
2022-09-05T05:18:14.371Z,12.03
2022-09-05T05:19:17.280Z,12.08
2022-09-05T05:22:29.731Z,12.13
2022-09-05T05:25:51.786Z,12.19
2022-09-05T05:29:09.301Z,12.40
2022-09-05T05:32:44.835Z,12.31
2022-09-05T05:35:58.779Z,12.41
2022-09-05T05:39:13.665Z,12.63
2022-09-05T05:42:25.326Z,12.67
2022-09-05T05:45:37.644Z,12.77
2022-09-05T05:48:57.131Z,12.96
2022-09-05T05:52:42.261Z,13.20
2022-09-05T05:56:41.983Z,13.52
2022-09-05T06:00:08.614Z,13.75
2022-09-05T06:04:05.453Z,13.99
2022-09-05T06:07:29.258Z,14.39
2022-09-05T06:15:06.397Z,14.71
2022-09-05T06:15:41.695Z,14.96
2022-09-05T06:20:01.780Z,15.51
2022-09-05T06:23:45.338Z,17.60
2022-09-05T06:27:27.491Z,18.57
2022-09-05T06:30:48.817Z,19.25
2022-09-05T06:34:33.090Z,19.55
2022-09-05T06:38:01.677Z,19.57
2022-09-05T06:41:29.005Z,20.24
2022-09-05T06:44:57.186Z,20.98
2022-09-05T06:48:45.028Z,21.51
2022-09-05T06:52:32.125Z,22.02
2022-09-05T06:56:06.229Z,21.81
2022-09-05T07:00:03.799Z,21.31
2022-09-05T07:03:30.553Z,21.30
2022-09-05T07:07:06.463Z,21.33
2022-09-05T07:10:38.327Z,22.51
2022-09-05T07:14:03.424Z,23.46
2022-09-05T07:17:20.997Z,24.95
2022-09-05T07:20:37.952Z,25.75
2022-09-05T07:24:11.158Z,26.75
2022-09-05T07:27:42.037Z,24.91
2022-09-05T07:31:26.475Z,25.37
2022-09-05T07:34:49.311Z,26.15
2022-09-05T07:38:07.169Z,25.72
2022-09-05T07:41:23.536Z,26.41
2022-09-05T07:44:40.449Z,26.65
2022-09-05T07:48:00.559Z,27.14
2022-09-05T07:56:47.398Z,25.19
2022-09-05T07:56:49.749Z,24.61
2022-09-05T07:58:35.447Z,24.32
2022-09-05T08:01:48.589Z,24.19
2022-09-05T08:05:04.454Z,24.40
2022-09-05T08:08:19.473Z,22.93
2022-09-05T08:11:35.902Z,22.54
2022-09-05T08:14:53.720Z,22.15
2022-09-05T08:18:18.373Z,21.99
2022-09-05T08:21:41.981Z,21.44
2022-09-05T08:25:04.645Z,21.10
2022-09-05T08:28:25.307Z,20.89
2022-09-05T08:31:52.692Z,21.81
2022-09-05T08:35:12.205Z,21.53
2022-09-05T08:38:21.719Z,22.16
2022-09-05T08:41:50.403Z,22.54
2022-09-05T08:46:39.567Z,23.57
2022-09-05T08:49:37.826Z,22.55
2022-09-05T08:53:28.348Z,22.83
2022-09-05T08:56:50.980Z,22.63
2022-09-05T09:00:18.951Z,22.56
2022-09-05T09:03:40.470Z,23.12
2022-09-05T09:07:47.400Z,23.95
2022-09-05T09:10:57.371Z,23.59
2022-09-05T09:14:52.312Z,23.43
2022-09-05T09:18:15.629Z,23.30
2022-09-05T09:21:30.369Z,23.52
2022-09-05T09:25:08.258Z,23.42
2022-09-05T09:28:53.793Z,23.39
2022-09-05T09:32:09.557Z,23.10
2022-09-05T09:35:36.542Z,23.56
2022-09-05T09:39:37.448Z,22.91
2022-09-05T09:42:51.813Z,23.28
2022-09-05T09:46:18.858Z,23.66
2022-09-05T09:50:01.747Z,23.21
2022-09-05T09:53:37.429Z,23.18
2022-09-05T09:57:24.484Z,23.62
2022-09-05T10:00:51.398Z,23.71
2022-09-05T10:10:36.481Z,23.66
2022-09-05T10:10:53.554Z,23.73
2022-09-05T10:12:42.373Z,23.92
2022-09-05T10:16:47.614Z,24.04
2022-09-05T10:20:29.491Z,24.10
2022-09-05T10:24:16.107Z,24.44
2022-09-05T10:27:45.841Z,24.55
2022-09-05T10:35:06.907Z,24.61
2022-09-05T10:35:18.286Z,24.30
2022-09-05T10:38:38.511Z,24.45
2022-09-05T10:41:53.491Z,24.73
2022-09-05T10:45:12.606Z,24.77
2022-09-05T10:48:29.414Z,24.65
2022-09-05T10:51:52.055Z,24.58
2022-09-05T10:55:26.278Z,24.78
2022-09-05T11:01:10.323Z,24.73
2022-09-05T11:02:39.674Z,24.74
2022-09-05T11:05:59.634Z,24.76
2022-09-05T11:09:40.977Z,24.86
2022-09-05T11:13:10.734Z,24.87
2022-09-05T11:16:32.664Z,24.78
2022-09-05T11:19:46.547Z,24.85
2022-09-05T11:23:03.969Z,25.01
2022-09-05T11:26:34.750Z,24.99
2022-09-05T11:29:49.059Z,25.09
2022-09-05T11:39:52.306Z,24.43
2022-09-05T11:39:53.444Z,24.93
2022-09-05T11:41:15.824Z,24.31
2022-09-05T11:44:38.930Z,24.69
2022-09-05T11:48:34.132Z,25.00
2022-09-05T11:52:41.189Z,25.06
2022-09-05T11:56:29.121Z,25.24
2022-09-05T12:00:33.391Z,25.27
2022-09-05T12:04:23.957Z,25.14
2022-09-05T12:07:57.436Z,25.11
2022-09-05T12:11:24.935Z,25.02
2022-09-05T12:14:49.372Z,24.94
2022-09-05T12:18:21.638Z,24.63
2022-09-05T12:21:46.027Z,24.91
2022-09-05T12:27:36.828Z,25.12
2022-09-05T12:29:28.120Z,25.28
2022-09-05T12:34:06.442Z,25.37
2022-09-05T12:40:43.337Z,25.43
2022-09-05T12:41:32.746Z,25.64
2022-09-05T12:44:38.962Z,25.69
2022-09-05T12:47:16.892Z,25.69
2022-09-05T12:50:43.337Z,25.60
2022-09-05T12:53:58.999Z,25.48
2022-09-05T13:02:59.030Z,25.23
2022-09-05T13:03:01.533Z,25.30
2022-09-05T13:04:30.253Z,25.33
2022-09-05T13:07:48.879Z,25.45
2022-09-05T13:14:46.841Z,25.64
2022-09-05T13:14:58.511Z,25.68
2022-09-05T13:18:12.544Z,25.69
2022-09-05T13:21:27.094Z,25.51
2022-09-05T13:24:41.487Z,25.44
2022-09-05T13:27:57.892Z,25.53
2022-09-05T13:37:19.191Z,25.86
2022-09-05T13:37:58.605Z,25.77
2022-09-05T13:38:47.600Z,25.81
2022-09-05T13:41:59.378Z,25.92
2022-09-05T13:45:15.601Z,26.15
2022-09-05T13:52:31.238Z,25.61
2022-09-05T13:55:45.850Z,25.70
2022-09-05T13:59:03.433Z,25.83
2022-09-05T14:06:48.915Z,25.66
2022-09-05T14:10:50.925Z,25.91
2022-09-05T14:14:12.068Z,25.78
2022-09-05T14:17:54.573Z,25.98
2022-09-05T14:21:26.313Z,26.06
2022-09-05T14:24:40.981Z,25.89
2022-09-05T14:27:52.247Z,25.57
2022-09-05T14:33:35.515Z,25.44
2022-09-05T14:37:43.860Z,25.34
2022-09-05T14:38:53.622Z,25.16
2022-09-05T14:42:28.756Z,25.18
2022-09-05T14:46:10.347Z,25.26
2022-09-05T14:49:41.346Z,25.55
2022-09-05T14:57:28.623Z,25.44
2022-09-05T15:02:52.811Z,25.72
2022-09-05T15:07:25.713Z,25.53
2022-09-05T15:12:21.289Z,25.22
2022-09-05T15:14:10.066Z,25.14
2022-09-05T15:17:26.477Z,24.99
2022-09-05T15:20:40.340Z,24.85
2022-09-05T15:24:01.461Z,24.73
2022-09-05T15:27:19.035Z,24.57
2022-09-05T15:30:35.827Z,24.51
2022-09-05T15:33:45.148Z,24.53
2022-09-05T15:37:10.858Z,24.46
2022-09-05T15:40:27.806Z,24.51
2022-09-05T15:43:40.142Z,24.53
2022-09-05T15:46:57.177Z,24.33
2022-09-05T15:50:22.201Z,24.10
2022-09-05T15:53:37.157Z,23.85
2022-09-05T15:56:51.381Z,23.89
2022-09-05T16:00:05.164Z,23.90
2022-09-05T16:04:54.997Z,23.96
2022-09-05T16:10:31.738Z,23.94
2022-09-05T16:11:07.736Z,24.02
2022-09-05T16:14:21.501Z,23.93
2022-09-05T16:23:17.854Z,23.99
2022-09-05T16:23:27.193Z,24.03
2022-09-05T16:25:59.652Z,24.13
2022-09-05T16:29:23.875Z,24.14
2022-09-05T16:32:41.433Z,24.12
2022-09-05T16:36:10.889Z,23.99
2022-09-05T16:39:28.026Z,23.90
2022-09-05T16:42:46.656Z,23.80
2022-09-05T16:46:06.513Z,23.78
2022-09-05T16:49:41.925Z,23.68
2022-09-05T16:53:28.062Z,23.48
2022-09-05T16:56:43.957Z,23.38
2022-09-05T16:59:54.525Z,23.21
2022-09-05T17:03:28.946Z,23.09
2022-09-05T17:06:49.995Z,22.96
2022-09-05T17:10:09.078Z,22.86
2022-09-05T17:13:42.759Z,22.81
2022-09-05T17:16:56.451Z,22.62
2022-09-05T17:20:14.443Z,22.41
2022-09-05T17:28:46.025Z,22.31
2022-09-05T17:29:44.574Z,22.07
2022-09-05T17:35:17.074Z,21.68
2022-09-05T17:39:02.821Z,21.50
2022-09-05T17:42:32.755Z,21.38
2022-09-05T17:45:53.443Z,21.16
2022-09-05T17:49:19.435Z,20.99
2022-09-05T17:52:31.201Z,20.81
2022-09-05T17:56:14.472Z,20.67
2022-09-05T17:59:28.826Z,20.61
2022-09-05T18:02:56.267Z,20.38
2022-09-05T18:06:08.407Z,20.17
2022-09-05T18:09:58.801Z,20.01
2022-09-05T18:17:35.883Z,19.72
2022-09-05T18:20:33.227Z,19.65
2022-09-05T18:23:54.045Z,19.50
2022-09-05T18:27:43.846Z,19.40
2022-09-05T18:30:53.207Z,19.30
2022-09-05T18:34:46.579Z,19.18
2022-09-05T18:38:26.119Z,19.12
2022-09-05T18:41:55.220Z,18.96
2022-09-05T18:45:28.625Z,18.87
2022-09-05T18:49:39.294Z,18.77
2022-09-05T18:52:25.782Z,18.65
2022-09-05T18:56:13.751Z,18.62
2022-09-05T18:59:18.256Z,18.59
2022-09-05T19:02:51.328Z,18.46
2022-09-05T19:06:36.361Z,18.49
2022-09-05T19:10:34.041Z,18.32
2022-09-05T19:13:37.150Z,18.18
2022-09-05T19:16:48.563Z,18.14
2022-09-05T19:20:31.501Z,18.03
2022-09-05T19:23:50.507Z,17.99
2022-09-05T19:28:47.174Z,17.96
2022-09-05T19:36:50.443Z,17.86
2022-09-05T19:37:02.248Z,17.86
2022-09-05T19:37:46.380Z,17.72
2022-09-05T19:47:27.912Z,17.60
2022-09-05T19:47:38.729Z,17.51
2022-09-05T19:51:37.734Z,17.40
2022-09-05T19:54:52.596Z,17.32
2022-09-05T19:58:19.076Z,17.33
2022-09-05T20:01:28.070Z,17.31
2022-09-05T20:04:47.001Z,17.22
2022-09-05T20:08:02.251Z,17.10
2022-09-05T20:11:12.590Z,17.05
2022-09-05T20:14:29.168Z,17.04
2022-09-05T20:17:43.126Z,16.96
2022-09-05T20:20:57.208Z,16.91
2022-09-05T20:24:07.982Z,16.91
2022-09-05T20:27:19.155Z,16.99
2022-09-05T20:30:36.750Z,16.84
2022-09-05T20:33:51.722Z,16.68
2022-09-05T20:43:18.015Z,16.61
2022-09-05T20:43:18.586Z,16.67
2022-09-05T20:44:22.712Z,16.44
2022-09-05T20:54:07.173Z,16.38
2022-09-05T20:54:13.189Z,16.35
2022-09-05T20:54:43.491Z,16.37
2022-09-05T20:57:52.277Z,16.40
2022-09-05T21:01:21.599Z,16.52
2022-09-05T21:04:34.135Z,16.63
2022-09-05T21:07:51.249Z,16.56
2022-09-05T21:11:15.907Z,16.46
2022-09-05T21:14:28.492Z,16.52
2022-09-05T21:17:40.314Z,16.50
2022-09-05T21:20:57.407Z,16.34
2022-09-05T21:24:16.644Z,16.33
2022-09-05T21:27:27.261Z,16.15
2022-09-05T21:30:39.374Z,16.06
2022-09-05T21:33:49.586Z,16.01
2022-09-05T21:37:07.644Z,15.98
2022-09-05T21:40:17.532Z,15.95
2022-09-05T21:45:43.402Z,15.94
2022-09-05T21:47:40.905Z,15.95
2022-09-05T21:50:31.232Z,16.04
2022-09-05T21:57:37.456Z,16.17
2022-09-05T21:59:29.240Z,15.84
2022-09-05T22:00:51.837Z,15.57
2022-09-05T22:04:00.832Z,15.47
2022-09-05T22:07:14.480Z,15.43
2022-09-05T22:10:23.468Z,15.50
2022-09-05T22:13:58.951Z,15.42
2022-09-05T22:17:07.095Z,15.38
2022-09-05T22:20:20.729Z,15.31
2022-09-05T22:23:33.848Z,15.39
2022-09-05T22:26:57.373Z,15.37
2022-09-05T22:30:16.299Z,15.31
2022-09-05T22:33:26.870Z,15.23
2022-09-05T22:36:35.447Z,15.24
2022-09-05T22:39:45.597Z,15.21
2022-09-05T22:42:58.259Z,15.29
2022-09-05T22:46:08.492Z,15.37
2022-09-05T22:49:16.968Z,15.44
2022-09-05T22:52:25.499Z,15.38
2022-09-05T22:55:35.546Z,15.21
2022-09-05T22:58:46.505Z,15.10
2022-09-05T23:01:54.880Z,15.06
2022-09-05T23:05:03.389Z,14.98
2022-09-05T23:08:12.318Z,14.84
2022-09-05T23:11:22.138Z,14.81
2022-09-05T23:14:30.935Z,14.80
2022-09-05T23:17:39.128Z,14.80
2022-09-05T23:20:47.302Z,14.84
2022-09-05T23:23:55.907Z,14.85
2022-09-05T23:27:05.532Z,14.84
2022-09-05T23:30:15.379Z,14.80
2022-09-05T23:33:24.874Z,14.80
2022-09-05T23:36:35.916Z,14.78
2022-09-05T23:39:44.547Z,14.76
2022-09-05T23:42:56.044Z,14.78
2022-09-05T23:46:05.696Z,14.76
2022-09-05T23:49:14.187Z,14.76
2022-09-05T23:52:22.571Z,14.73
2022-09-05T23:55:31.192Z,14.72
2022-09-05T23:58:41.382Z,14.74
